sensor_id;sensor_type;location;lat;lon;timestamp;P1;durP1;ratioP1;P2;durP2;ratioP2
73557;SDS011;61829;53.286;10.434;2022-12-07T00:01:19;19.88;;;10.50;;
73557;SDS011;61829;53.286;10.434;2022-12-07T00:03:53;21.83;;;9.93;;
73557;SDS011;61829;53.286;10.434;2022-12-07T00:06:30;22.17;;;10.18;;
73557;SDS011;61829;53.286;10.434;2022-12-07T00:09:00;21.20;;;9.95;;
73557;SDS011;61829;53.286;10.434;2022-12-07T00:11:27;19.15;;;9.80;;
73557;SDS011;61829;53.286;10.434;2022-12-07T00:13:56;21.50;;;9.85;;
73557;SDS011;61829;53.286;10.434;2022-12-07T00:16:25;17.67;;;9.20;;
73557;SDS011;61829;53.286;10.434;2022-12-07T00:18:53;19.65;;;10.77;;
73557;SDS011;61829;53.286;10.434;2022-12-07T00:21:21;18.27;;;9.35;;
73557;SDS011;61829;53.286;10.434;2022-12-07T00:23:50;18.95;;;9.88;;
73557;SDS011;61829;53.286;10.434;2022-12-07T00:26:22;18.30;;;9.52;;
73557;SDS011;61829;53.286;10.434;2022-12-07T00:28:51;20.63;;;9.60;;
73557;SDS011;61829;53.286;10.434;2022-12-07T00:31:20;17.85;;;9.32;;
73557;SDS011;61829;53.286;10.434;2022-12-07T00:33:48;17.15;;;9.15;;
73557;SDS011;61829;53.286;10.434;2022-12-07T00:36:15;18.50;;;8.98;;
73557;SDS011;61829;53.286;10.434;2022-12-07T00:38:43;18.05;;;9.30;;
73557;SDS011;61829;53.286;10.434;2022-12-07T00:41:14;21.05;;;9.40;;
73557;SDS011;61829;53.286;10.434;2022-12-07T00:43:42;18.65;;;8.38;;
73557;SDS011;61829;53.286;10.434;2022-12-07T00:46:09;19.15;;;9.68;;
73557;SDS011;61829;53.286;10.434;2022-12-07T00:48:35;20.98;;;9.40;;
73557;SDS011;61829;53.286;10.434;2022-12-07T00:51:02;18.80;;;9.52;;
73557;SDS011;61829;53.286;10.434;2022-12-07T00:53:29;19.52;;;8.80;;
73557;SDS011;61829;53.286;10.434;2022-12-07T00:55:55;17.92;;;8.93;;
73557;SDS011;61829;53.286;10.434;2022-12-07T00:58:22;19.33;;;10.48;;
73557;SDS011;61829;53.286;10.434;2022-12-07T01:00:49;18.00;;;8.38;;
73557;SDS011;61829;53.286;10.434;2022-12-07T01:03:15;18.83;;;8.82;;
73557;SDS011;61829;53.286;10.434;2022-12-07T01:05:49;22.67;;;9.68;;
73557;SDS011;61829;53.286;10.434;2022-12-07T01:08:19;18.50;;;9.05;;
73557;SDS011;61829;53.286;10.434;2022-12-07T01:10:46;20.58;;;9.50;;
73557;SDS011;61829;53.286;10.434;2022-12-07T01:13:12;19.85;;;8.68;;
73557;SDS011;61829;53.286;10.434;2022-12-07T01:15:39;18.88;;;9.32;;
73557;SDS011;61829;53.286;10.434;2022-12-07T01:18:06;21.50;;;9.30;;
73557;SDS011;61829;53.286;10.434;2022-12-07T01:20:33;16.50;;;7.25;;
73557;SDS011;61829;53.286;10.434;2022-12-07T01:22:59;15.30;;;7.53;;
73557;SDS011;61829;53.286;10.434;2022-12-07T01:25:26;18.27;;;8.45;;
73557;SDS011;61829;53.286;10.434;2022-12-07T01:27:52;17.02;;;8.30;;
73557;SDS011;61829;53.286;10.434;2022-12-07T01:30:18;15.57;;;7.40;;
73557;SDS011;61829;53.286;10.434;2022-12-07T01:32:44;18.88;;;7.65;;
73557;SDS011;61829;53.286;10.434;2022-12-07T01:35:10;19.27;;;8.23;;
73557;SDS011;61829;53.286;10.434;2022-12-07T01:37:37;17.50;;;7.70;;
73557;SDS011;61829;53.286;10.434;2022-12-07T01:40:05;15.63;;;7.93;;
73557;SDS011;61829;53.286;10.434;2022-12-07T01:42:32;16.45;;;7.70;;
73557;SDS011;61829;53.286;10.434;2022-12-07T01:47:47;18.35;;;8.02;;
73557;SDS011;61829;53.286;10.434;2022-12-07T01:50:19;17.38;;;7.63;;
73557;SDS011;61829;53.286;10.434;2022-12-07T01:52:48;14.95;;;7.82;;
73557;SDS011;61829;53.286;10.434;2022-12-07T01:55:16;17.45;;;7.47;;
73557;SDS011;61829;53.286;10.434;2022-12-07T01:57:47;19.30;;;8.77;;
73557;SDS011;61829;53.286;10.434;2022-12-07T02:00:17;18.63;;;8.10;;
73557;SDS011;61829;53.286;10.434;2022-12-07T02:03:06;16.50;;;8.13;;
73557;SDS011;61829;53.286;10.434;2022-12-07T02:05:41;21.73;;;9.02;;
73557;SDS011;61829;53.286;10.434;2022-12-07T02:10:58;16.40;;;6.57;;
73557;SDS011;61829;53.286;10.434;2022-12-07T02:13:26;17.58;;;7.65;;
73557;SDS011;61829;53.286;10.434;2022-12-07T02:18:30;18.92;;;7.75;;
73557;SDS011;61829;53.286;10.434;2022-12-07T02:21:11;16.60;;;8.10;;
73557;SDS011;61829;53.286;10.434;2022-12-07T02:37:41;14.02;;;6.85;;
73557;SDS011;61829;53.286;10.434;2022-12-07T02:42:49;13.02;;;7.43;;
73557;SDS011;61829;53.286;10.434;2022-12-07T02:45:23;16.55;;;7.40;;
73557;SDS011;61829;53.286;10.434;2022-12-07T02:47:55;15.30;;;7.60;;
73557;SDS011;61829;53.286;10.434;2022-12-07T02:50:24;16.02;;;7.15;;
73557;SDS011;61829;53.286;10.434;2022-12-07T02:52:50;15.30;;;6.72;;
73557;SDS011;61829;53.286;10.434;2022-12-07T02:55:17;16.40;;;7.22;;
73557;SDS011;61829;53.286;10.434;2022-12-07T02:57:51;16.77;;;7.70;;
73557;SDS011;61829;53.286;10.434;2022-12-07T03:00:44;17.15;;;6.47;;
73557;SDS011;61829;53.286;10.434;2022-12-07T03:03:20;10.82;;;5.72;;
73557;SDS011;61829;53.286;10.434;2022-12-07T03:05:59;11.25;;;5.68;;
73557;SDS011;61829;53.286;10.434;2022-12-07T03:11:55;10.43;;;5.45;;
73557;SDS011;61829;53.286;10.434;2022-12-07T03:14:30;10.93;;;5.38;;
73557;SDS011;61829;53.286;10.434;2022-12-07T03:17:06;10.98;;;5.43;;
73557;SDS011;61829;53.286;10.434;2022-12-07T03:19:49;12.18;;;5.28;;
73557;SDS011;61829;53.286;10.434;2022-12-07T03:22:19;8.60;;;4.18;;
73557;SDS011;61829;53.286;10.434;2022-12-07T03:24:50;10.70;;;4.30;;
73557;SDS011;61829;53.286;10.434;2022-12-07T03:27:25;8.20;;;4.30;;
73557;SDS011;61829;53.286;10.434;2022-12-07T03:29:59;13.25;;;4.80;;
73557;SDS011;61829;53.286;10.434;2022-12-07T03:37:49;8.55;;;4.38;;
73557;SDS011;61829;53.286;10.434;2022-12-07T03:43:07;11.43;;;4.78;;
73557;SDS011;61829;53.286;10.434;2022-12-07T03:45:42;11.02;;;4.18;;
73557;SDS011;61829;53.286;10.434;2022-12-07T03:56:20;8.73;;;4.00;;
73557;SDS011;61829;53.286;10.434;2022-12-07T03:58:48;12.05;;;4.00;;
73557;SDS011;61829;53.286;10.434;2022-12-07T04:01:14;7.15;;;3.33;;
73557;SDS011;61829;53.286;10.434;2022-12-07T04:03:40;9.93;;;3.95;;
73557;SDS011;61829;53.286;10.434;2022-12-07T04:06:06;8.07;;;3.58;;
73557;SDS011;61829;53.286;10.434;2022-12-07T04:08:36;5.88;;;2.97;;
73557;SDS011;61829;53.286;10.434;2022-12-07T04:11:02;9.20;;;3.90;;
73557;SDS011;61829;53.286;10.434;2022-12-07T04:13:28;5.88;;;2.80;;
73557;SDS011;61829;53.286;10.434;2022-12-07T04:15:54;6.90;;;3.33;;
73557;SDS011;61829;53.286;10.434;2022-12-07T04:18:20;7.20;;;2.80;;
73557;SDS011;61829;53.286;10.434;2022-12-07T04:20:46;8.35;;;3.05;;
73557;SDS011;61829;53.286;10.434;2022-12-07T04:23:12;8.13;;;3.42;;
73557;SDS011;61829;53.286;10.434;2022-12-07T04:25:39;6.85;;;3.10;;
73557;SDS011;61829;53.286;10.434;2022-12-07T04:28:06;10.57;;;3.25;;
73557;SDS011;61829;53.286;10.434;2022-12-07T04:30:32;6.97;;;3.03;;
73557;SDS011;61829;53.286;10.434;2022-12-07T04:32:58;7.47;;;3.35;;
73557;SDS011;61829;53.286;10.434;2022-12-07T04:35:24;5.22;;;2.97;;
73557;SDS011;61829;53.286;10.434;2022-12-07T04:37:50;7.05;;;3.03;;
73557;SDS011;61829;53.286;10.434;2022-12-07T04:40:16;8.13;;;3.10;;
73557;SDS011;61829;53.286;10.434;2022-12-07T04:42:43;8.35;;;3.05;;
73557;SDS011;61829;53.286;10.434;2022-12-07T04:45:09;8.88;;;3.28;;
73557;SDS011;61829;53.286;10.434;2022-12-07T04:47:35;7.47;;;2.88;;
73557;SDS011;61829;53.286;10.434;2022-12-07T04:50:01;8.95;;;3.20;;
73557;SDS011;61829;53.286;10.434;2022-12-07T04:52:28;6.05;;;3.08;;
73557;SDS011;61829;53.286;10.434;2022-12-07T04:54:55;6.90;;;2.58;;
73557;SDS011;61829;53.286;10.434;2022-12-07T04:57:21;7.00;;;2.95;;
73557;SDS011;61829;53.286;10.434;2022-12-07T04:59:48;5.10;;;2.70;;
73557;SDS011;61829;53.286;10.434;2022-12-07T05:02:14;6.88;;;2.55;;
73557;SDS011;61829;53.286;10.434;2022-12-07T05:04:40;5.43;;;2.72;;
73557;SDS011;61829;53.286;10.434;2022-12-07T05:07:06;4.60;;;2.38;;
73557;SDS011;61829;53.286;10.434;2022-12-07T05:09:33;6.45;;;2.75;;
73557;SDS011;61829;53.286;10.434;2022-12-07T05:11:59;6.47;;;2.78;;
73557;SDS011;61829;53.286;10.434;2022-12-07T05:14:25;5.68;;;2.50;;
73557;SDS011;61829;53.286;10.434;2022-12-07T05:16:51;8.40;;;2.60;;
73557;SDS011;61829;53.286;10.434;2022-12-07T05:19:19;6.55;;;2.75;;
73557;SDS011;61829;53.286;10.434;2022-12-07T05:21:45;7.63;;;2.85;;
73557;SDS011;61829;53.286;10.434;2022-12-07T05:24:12;6.00;;;2.08;;
73557;SDS011;61829;53.286;10.434;2022-12-07T05:26:40;8.23;;;2.67;;
73557;SDS011;61829;53.286;10.434;2022-12-07T05:29:13;5.22;;;2.30;;
73557;SDS011;61829;53.286;10.434;2022-12-07T05:31:43;7.15;;;2.70;;
73557;SDS011;61829;53.286;10.434;2022-12-07T05:34:10;6.72;;;2.50;;
73557;SDS011;61829;53.286;10.434;2022-12-07T05:36:36;8.18;;;2.47;;
73557;SDS011;61829;53.286;10.434;2022-12-07T05:39:03;4.88;;;2.10;;
73557;SDS011;61829;53.286;10.434;2022-12-07T05:41:29;6.18;;;2.42;;
73557;SDS011;61829;53.286;10.434;2022-12-07T05:44:13;7.30;;;2.65;;
73557;SDS011;61829;53.286;10.434;2022-12-07T05:46:39;5.07;;;2.45;;
73557;SDS011;61829;53.286;10.434;2022-12-07T05:49:05;4.40;;;2.30;;
73557;SDS011;61829;53.286;10.434;2022-12-07T05:51:32;3.92;;;2.20;;
73557;SDS011;61829;53.286;10.434;2022-12-07T05:53:58;6.90;;;2.50;;
73557;SDS011;61829;53.286;10.434;2022-12-07T05:56:24;5.93;;;2.22;;
73557;SDS011;61829;53.286;10.434;2022-12-07T05:58:50;9.43;;;2.50;;
73557;SDS011;61829;53.286;10.434;2022-12-07T06:01:36;6.05;;;2.50;;
73557;SDS011;61829;53.286;10.434;2022-12-07T06:04:02;5.30;;;2.22;;
73557;SDS011;61829;53.286;10.434;2022-12-07T06:06:28;4.53;;;2.17;;
73557;SDS011;61829;53.286;10.434;2022-12-07T06:08:55;5.30;;;2.40;;
73557;SDS011;61829;53.286;10.434;2022-12-07T06:11:20;5.07;;;2.35;;
73557;SDS011;61829;53.286;10.434;2022-12-07T06:14:05;3.55;;;1.90;;
73557;SDS011;61829;53.286;10.434;2022-12-07T06:16:31;4.72;;;2.20;;
73557;SDS011;61829;53.286;10.434;2022-12-07T06:18:57;5.60;;;1.92;;
73557;SDS011;61829;53.286;10.434;2022-12-07T06:21:23;6.07;;;2.50;;
73557;SDS011;61829;53.286;10.434;2022-12-07T06:23:51;2.88;;;1.60;;
73557;SDS011;61829;53.286;10.434;2022-12-07T06:26:17;5.43;;;2.45;;
73557;SDS011;61829;53.286;10.434;2022-12-07T06:28:44;4.70;;;2.30;;
73557;SDS011;61829;53.286;10.434;2022-12-07T06:31:10;6.55;;;2.08;;
73557;SDS011;61829;53.286;10.434;2022-12-07T06:33:36;6.68;;;2.45;;
73557;SDS011;61829;53.286;10.434;2022-12-07T06:36:02;4.25;;;2.03;;
73557;SDS011;61829;53.286;10.434;2022-12-07T06:38:28;7.43;;;2.72;;
73557;SDS011;61829;53.286;10.434;2022-12-07T06:40:54;6.47;;;2.47;;
73557;SDS011;61829;53.286;10.434;2022-12-07T06:43:20;5.30;;;2.45;;
73557;SDS011;61829;53.286;10.434;2022-12-07T06:45:47;4.20;;;2.20;;
73557;SDS011;61829;53.286;10.434;2022-12-07T06:48:13;4.60;;;2.33;;
73557;SDS011;61829;53.286;10.434;2022-12-07T06:50:39;7.63;;;2.60;;
73557;SDS011;61829;53.286;10.434;2022-12-07T06:53:05;4.75;;;2.35;;
73557;SDS011;61829;53.286;10.434;2022-12-07T06:55:31;5.28;;;2.22;;
73557;SDS011;61829;53.286;10.434;2022-12-07T06:57:57;9.95;;;2.60;;
73557;SDS011;61829;53.286;10.434;2022-12-07T07:00:23;6.32;;;2.75;;
73557;SDS011;61829;53.286;10.434;2022-12-07T07:02:49;4.65;;;2.00;;
73557;SDS011;61829;53.286;10.434;2022-12-07T07:05:15;5.50;;;2.75;;
73557;SDS011;61829;53.286;10.434;2022-12-07T07:07:42;11.48;;;2.50;;
73557;SDS011;61829;53.286;10.434;2022-12-07T07:10:09;5.63;;;2.15;;
73557;SDS011;61829;53.286;10.434;2022-12-07T07:12:36;8.38;;;3.38;;
73557;SDS011;61829;53.286;10.434;2022-12-07T07:15:02;7.35;;;2.50;;
73557;SDS011;61829;53.286;10.434;2022-12-07T07:17:28;7.25;;;2.55;;
73557;SDS011;61829;53.286;10.434;2022-12-07T07:19:57;7.63;;;2.25;;
73557;SDS011;61829;53.286;10.434;2022-12-07T07:22:23;6.53;;;2.53;;
73557;SDS011;61829;53.286;10.434;2022-12-07T07:24:49;6.22;;;2.40;;
73557;SDS011;61829;53.286;10.434;2022-12-07T07:27:15;3.97;;;2.20;;
73557;SDS011;61829;53.286;10.434;2022-12-07T07:29:41;3.50;;;2.00;;
73557;SDS011;61829;53.286;10.434;2022-12-07T07:32:07;3.95;;;1.75;;
73557;SDS011;61829;53.286;10.434;2022-12-07T07:34:34;8.98;;;2.28;;
73557;SDS011;61829;53.286;10.434;2022-12-07T07:37:00;5.10;;;2.10;;
73557;SDS011;61829;53.286;10.434;2022-12-07T07:39:29;5.65;;;2.40;;
73557;SDS011;61829;53.286;10.434;2022-12-07T07:41:55;5.60;;;2.45;;
73557;SDS011;61829;53.286;10.434;2022-12-07T07:44:21;5.72;;;2.10;;
73557;SDS011;61829;53.286;10.434;2022-12-07T07:46:47;7.45;;;2.53;;
73557;SDS011;61829;53.286;10.434;2022-12-07T07:49:13;4.40;;;2.30;;
73557;SDS011;61829;53.286;10.434;2022-12-07T07:51:40;8.00;;;2.58;;
73557;SDS011;61829;53.286;10.434;2022-12-07T07:54:06;6.38;;;2.70;;
73557;SDS011;61829;53.286;10.434;2022-12-07T07:56:33;6.07;;;2.88;;
73557;SDS011;61829;53.286;10.434;2022-12-07T07:59:06;4.78;;;1.95;;
73557;SDS011;61829;53.286;10.434;2022-12-07T08:01:33;7.78;;;2.63;;
73557;SDS011;61829;53.286;10.434;2022-12-07T08:04:02;6.60;;;2.22;;
73557;SDS011;61829;53.286;10.434;2022-12-07T08:06:28;6.32;;;2.58;;
73557;SDS011;61829;53.286;10.434;2022-12-07T08:08:54;5.43;;;1.98;;
73557;SDS011;61829;53.286;10.434;2022-12-07T08:11:21;5.35;;;2.17;;
73557;SDS011;61829;53.286;10.434;2022-12-07T08:13:49;4.90;;;2.20;;
73557;SDS011;61829;53.286;10.434;2022-12-07T08:16:16;4.20;;;2.13;;
73557;SDS011;61829;53.286;10.434;2022-12-07T08:18:43;4.78;;;2.33;;
73557;SDS011;61829;53.286;10.434;2022-12-07T08:21:11;4.40;;;1.80;;
73557;SDS011;61829;53.286;10.434;2022-12-07T08:23:39;3.78;;;1.92;;
73557;SDS011;61829;53.286;10.434;2022-12-07T08:26:07;7.15;;;2.00;;
73557;SDS011;61829;53.286;10.434;2022-12-07T08:28:35;4.40;;;1.83;;
73557;SDS011;61829;53.286;10.434;2022-12-07T08:31:04;6.47;;;2.40;;
73557;SDS011;61829;53.286;10.434;2022-12-07T08:33:33;5.63;;;2.33;;
73557;SDS011;61829;53.286;10.434;2022-12-07T08:36:00;6.40;;;2.13;;
73557;SDS011;61829;53.286;10.434;2022-12-07T08:38:30;3.75;;;2.25;;
73557;SDS011;61829;53.286;10.434;2022-12-07T08:40:58;7.07;;;2.50;;
73557;SDS011;61829;53.286;10.434;2022-12-07T08:43:25;7.22;;;2.60;;
73557;SDS011;61829;53.286;10.434;2022-12-07T08:46:38;5.95;;;3.05;;
73557;SDS011;61829;53.286;10.434;2022-12-07T08:49:04;4.63;;;2.85;;
73557;SDS011;61829;53.286;10.434;2022-12-07T08:51:32;7.45;;;3.20;;
73557;SDS011;61829;53.286;10.434;2022-12-07T08:53:59;7.78;;;2.63;;
73557;SDS011;61829;53.286;10.434;2022-12-07T08:56:30;8.38;;;2.33;;
73557;SDS011;61829;53.286;10.434;2022-12-07T08:58:57;8.43;;;2.20;;
73557;SDS011;61829;53.286;10.434;2022-12-07T09:01:24;4.43;;;2.33;;
73557;SDS011;61829;53.286;10.434;2022-12-07T09:03:50;3.78;;;2.13;;
73557;SDS011;61829;53.286;10.434;2022-12-07T09:06:19;9.50;;;2.75;;
73557;SDS011;61829;53.286;10.434;2022-12-07T09:08:51;4.85;;;2.80;;
73557;SDS011;61829;53.286;10.434;2022-12-07T09:11:21;4.88;;;2.63;;
73557;SDS011;61829;53.286;10.434;2022-12-07T09:13:47;7.55;;;2.67;;
73557;SDS011;61829;53.286;10.434;2022-12-07T09:16:13;6.72;;;2.38;;
73557;SDS011;61829;53.286;10.434;2022-12-07T09:18:40;5.63;;;2.72;;
73557;SDS011;61829;53.286;10.434;2022-12-07T09:21:06;9.27;;;2.72;;
73557;SDS011;61829;53.286;10.434;2022-12-07T09:23:32;6.88;;;2.50;;
73557;SDS011;61829;53.286;10.434;2022-12-07T09:25:59;5.63;;;2.22;;
73557;SDS011;61829;53.286;10.434;2022-12-07T09:28:26;3.70;;;2.00;;
73557;SDS011;61829;53.286;10.434;2022-12-07T09:30:52;8.93;;;2.45;;
73557;SDS011;61829;53.286;10.434;2022-12-07T09:33:18;4.20;;;2.28;;
73557;SDS011;61829;53.286;10.434;2022-12-07T09:35:45;3.45;;;1.70;;
73557;SDS011;61829;53.286;10.434;2022-12-07T09:38:15;3.53;;;1.77;;
73557;SDS011;61829;53.286;10.434;2022-12-07T09:40:43;2.75;;;1.95;;
73557;SDS011;61829;53.286;10.434;2022-12-07T09:43:13;3.33;;;1.70;;
73557;SDS011;61829;53.286;10.434;2022-12-07T09:45:43;4.45;;;1.80;;
73557;SDS011;61829;53.286;10.434;2022-12-07T09:48:19;3.25;;;1.83;;
73557;SDS011;61829;53.286;10.434;2022-12-07T09:50:47;4.88;;;1.73;;
73557;SDS011;61829;53.286;10.434;2022-12-07T09:53:36;4.50;;;1.52;;
73557;SDS011;61829;53.286;10.434;2022-12-07T09:56:03;6.55;;;1.70;;
73557;SDS011;61829;53.286;10.434;2022-12-07T09:58:31;2.92;;;1.65;;
73557;SDS011;61829;53.286;10.434;2022-12-07T10:01:01;4.65;;;1.75;;
73557;SDS011;61829;53.286;10.434;2022-12-07T10:03:38;5.50;;;1.73;;
73557;SDS011;61829;53.286;10.434;2022-12-07T10:06:06;5.88;;;1.75;;
73557;SDS011;61829;53.286;10.434;2022-12-07T10:08:33;6.28;;;1.60;;
73557;SDS011;61829;53.286;10.434;2022-12-07T10:11:01;2.17;;;1.30;;
73557;SDS011;61829;53.286;10.434;2022-12-07T10:13:37;4.38;;;1.77;;
73557;SDS011;61829;53.286;10.434;2022-12-07T10:16:06;5.53;;;1.50;;
73557;SDS011;61829;53.286;10.434;2022-12-07T10:18:56;4.97;;;1.58;;
73557;SDS011;61829;53.286;10.434;2022-12-07T10:21:23;2.58;;;1.40;;
73557;SDS011;61829;53.286;10.434;2022-12-07T10:24:00;6.32;;;1.70;;
73557;SDS011;61829;53.286;10.434;2022-12-07T10:28:55;3.45;;;1.70;;
73557;SDS011;61829;53.286;10.434;2022-12-07T10:31:25;3.97;;;1.30;;
73557;SDS011;61829;53.286;10.434;2022-12-07T10:39:22;3.85;;;1.40;;
73557;SDS011;61829;53.286;10.434;2022-12-07T10:41:53;7.15;;;1.77;;
73557;SDS011;61829;53.286;10.434;2022-12-07T10:44:25;2.08;;;1.27;;
73557;SDS011;61829;53.286;10.434;2022-12-07T11:06:35;1.45;;;0.88;;
73557;SDS011;61829;53.286;10.434;2022-12-07T11:09:45;4.35;;;0.80;;
73557;SDS011;61829;53.286;10.434;2022-12-07T11:20:43;0.95;;;0.50;;
73557;SDS011;61829;53.286;10.434;2022-12-07T11:23:42;1.17;;;0.70;;
73557;SDS011;61829;53.286;10.434;2022-12-07T11:34:22;6.85;;;0.93;;
73557;SDS011;61829;53.286;10.434;2022-12-07T11:36:53;1.80;;;0.75;;
73557;SDS011;61829;53.286;10.434;2022-12-07T11:41:47;1.30;;;0.70;;
73557;SDS011;61829;53.286;10.434;2022-12-07T11:44:34;3.13;;;0.88;;
73557;SDS011;61829;53.286;10.434;2022-12-07T11:47:14;4.70;;;0.98;;
73557;SDS011;61829;53.286;10.434;2022-12-07T11:50:13;2.85;;;0.90;;
73557;SDS011;61829;53.286;10.434;2022-12-07T11:58:27;4.32;;;0.93;;
73557;SDS011;61829;53.286;10.434;2022-12-07T12:01:01;4.20;;;1.00;;
73557;SDS011;61829;53.286;10.434;2022-12-07T12:03:36;5.53;;;1.00;;
73557;SDS011;61829;53.286;10.434;2022-12-07T12:06:06;2.53;;;0.90;;
73557;SDS011;61829;53.286;10.434;2022-12-07T12:09:20;4.35;;;1.30;;
73557;SDS011;61829;53.286;10.434;2022-12-07T12:17:12;2.20;;;0.80;;
73557;SDS011;61829;53.286;10.434;2022-12-07T12:22:22;5.03;;;1.20;;
73557;SDS011;61829;53.286;10.434;2022-12-07T12:24:58;6.00;;;1.20;;
73557;SDS011;61829;53.286;10.434;2022-12-07T12:27:26;2.38;;;1.05;;
73557;SDS011;61829;53.286;10.434;2022-12-07T12:29:59;3.90;;;1.00;;
73557;SDS011;61829;53.286;10.434;2022-12-07T12:32:41;2.65;;;1.20;;
73557;SDS011;61829;53.286;10.434;2022-12-07T12:44:02;2.58;;;1.02;;
73557;SDS011;61829;53.286;10.434;2022-12-07T12:48:55;3.80;;;1.08;;
73557;SDS011;61829;53.286;10.434;2022-12-07T12:51:41;3.13;;;1.27;;
73557;SDS011;61829;53.286;10.434;2022-12-07T12:54:14;5.68;;;1.50;;
73557;SDS011;61829;53.286;10.434;2022-12-07T12:56:48;3.85;;;1.05;;
73557;SDS011;61829;53.286;10.434;2022-12-07T12:59:36;5.78;;;1.70;;
73557;SDS011;61829;53.286;10.434;2022-12-07T13:02:15;4.30;;;1.23;;
73557;SDS011;61829;53.286;10.434;2022-12-07T13:04:49;1.50;;;0.90;;
73557;SDS011;61829;53.286;10.434;2022-12-07T13:15:44;10.20;;;2.15;;
73557;SDS011;61829;53.286;10.434;2022-12-07T13:20:57;9.70;;;1.75;;
73557;SDS011;61829;53.286;10.434;2022-12-07T13:23:36;5.18;;;1.55;;
73557;SDS011;61829;53.286;10.434;2022-12-07T13:31:42;4.72;;;1.50;;
73557;SDS011;61829;53.286;10.434;2022-12-07T13:34:28;4.93;;;1.45;;
73557;SDS011;61829;53.286;10.434;2022-12-07T13:36:55;7.00;;;1.20;;
73557;SDS011;61829;53.286;10.434;2022-12-07T13:39:24;2.80;;;1.10;;
73557;SDS011;61829;53.286;10.434;2022-12-07T13:41:56;3.80;;;1.13;;
73557;SDS011;61829;53.286;10.434;2022-12-07T13:44:34;4.28;;;1.35;;
73557;SDS011;61829;53.286;10.434;2022-12-07T13:47:16;6.10;;;1.40;;
73557;SDS011;61829;53.286;10.434;2022-12-07T13:49:48;4.38;;;1.42;;
73557;SDS011;61829;53.286;10.434;2022-12-07T13:52:25;3.97;;;1.30;;
73557;SDS011;61829;53.286;10.434;2022-12-07T13:57:31;2.28;;;1.30;;
73557;SDS011;61829;53.286;10.434;2022-12-07T14:00:03;2.80;;;1.20;;
73557;SDS011;61829;53.286;10.434;2022-12-07T14:02:53;10.05;;;1.73;;
73557;SDS011;61829;53.286;10.434;2022-12-07T14:05:29;6.45;;;1.30;;
73557;SDS011;61829;53.286;10.434;2022-12-07T14:10:39;7.10;;;1.70;;
73557;SDS011;61829;53.286;10.434;2022-12-07T14:16:18;4.82;;;1.60;;
73557;SDS011;61829;53.286;10.434;2022-12-07T14:18:58;4.28;;;1.23;;
73557;SDS011;61829;53.286;10.434;2022-12-07T14:21:29;5.80;;;1.92;;
73557;SDS011;61829;53.286;10.434;2022-12-07T14:26:34;2.83;;;1.30;;
73557;SDS011;61829;53.286;10.434;2022-12-07T14:31:57;5.47;;;1.50;;
73557;SDS011;61829;53.286;10.434;2022-12-07T14:34:24;5.45;;;1.50;;
73557;SDS011;61829;53.286;10.434;2022-12-07T14:36:51;6.55;;;1.65;;
73557;SDS011;61829;53.286;10.434;2022-12-07T14:39:17;5.40;;;1.30;;
73557;SDS011;61829;53.286;10.434;2022-12-07T14:41:43;8.80;;;1.88;;
73557;SDS011;61829;53.286;10.434;2022-12-07T14:44:16;4.93;;;1.60;;
73557;SDS011;61829;53.286;10.434;2022-12-07T14:49:09;5.15;;;1.02;;
73557;SDS011;61829;53.286;10.434;2022-12-07T14:51:36;5.78;;;1.45;;
73557;SDS011;61829;53.286;10.434;2022-12-07T14:54:05;4.22;;;1.35;;
73557;SDS011;61829;53.286;10.434;2022-12-07T14:56:37;2.75;;;1.33;;
73557;SDS011;61829;53.286;10.434;2022-12-07T14:59:03;3.05;;;1.30;;
73557;SDS011;61829;53.286;10.434;2022-12-07T15:01:31;11.00;;;1.42;;
73557;SDS011;61829;53.286;10.434;2022-12-07T15:03:57;5.05;;;1.55;;
73557;SDS011;61829;53.286;10.434;2022-12-07T15:06:24;5.30;;;1.92;;
73557;SDS011;61829;53.286;10.434;2022-12-07T15:08:50;7.25;;;2.17;;
73557;SDS011;61829;53.286;10.434;2022-12-07T15:11:17;8.13;;;1.80;;
73557;SDS011;61829;53.286;10.434;2022-12-07T15:13:43;6.38;;;1.60;;
73557;SDS011;61829;53.286;10.434;2022-12-07T15:16:28;4.90;;;1.80;;
73557;SDS011;61829;53.286;10.434;2022-12-07T15:18:54;1.48;;;1.20;;
73557;SDS011;61829;53.286;10.434;2022-12-07T15:21:21;6.03;;;1.50;;
73557;SDS011;61829;53.286;10.434;2022-12-07T15:23:47;3.70;;;1.30;;
73557;SDS011;61829;53.286;10.434;2022-12-07T15:26:14;2.50;;;1.42;;
73557;SDS011;61829;53.286;10.434;2022-12-07T15:28:40;4.05;;;1.50;;
73557;SDS011;61829;53.286;10.434;2022-12-07T15:31:16;4.57;;;1.55;;
73557;SDS011;61829;53.286;10.434;2022-12-07T15:33:43;3.95;;;1.75;;
73557;SDS011;61829;53.286;10.434;2022-12-07T15:36:15;4.03;;;1.55;;
73557;SDS011;61829;53.286;10.434;2022-12-07T15:38:49;3.42;;;2.17;;
73557;SDS011;61829;53.286;10.434;2022-12-07T15:41:15;9.73;;;2.30;;
73557;SDS011;61829;53.286;10.434;2022-12-07T15:43:41;7.93;;;2.17;;
73557;SDS011;61829;53.286;10.434;2022-12-07T15:46:30;6.97;;;2.15;;
73557;SDS011;61829;53.286;10.434;2022-12-07T15:48:57;5.32;;;2.30;;
73557;SDS011;61829;53.286;10.434;2022-12-07T15:51:24;5.80;;;2.30;;
73557;SDS011;61829;53.286;10.434;2022-12-07T15:53:50;3.47;;;1.92;;
73557;SDS011;61829;53.286;10.434;2022-12-07T15:56:17;5.22;;;2.10;;
73557;SDS011;61829;53.286;10.434;2022-12-07T15:58:42;5.25;;;1.50;;
73557;SDS011;61829;53.286;10.434;2022-12-07T16:01:10;3.13;;;1.50;;
73557;SDS011;61829;53.286;10.434;2022-12-07T16:03:40;5.32;;;2.08;;
73557;SDS011;61829;53.286;10.434;2022-12-07T16:06:06;4.90;;;1.77;;
73557;SDS011;61829;53.286;10.434;2022-12-07T16:08:33;3.20;;;1.65;;
73557;SDS011;61829;53.286;10.434;2022-12-07T16:10:59;5.75;;;1.75;;
73557;SDS011;61829;53.286;10.434;2022-12-07T16:13:25;6.63;;;1.95;;
73557;SDS011;61829;53.286;10.434;2022-12-07T16:15:51;3.67;;;2.10;;
73557;SDS011;61829;53.286;10.434;2022-12-07T16:18:17;4.72;;;2.20;;
73557;SDS011;61829;53.286;10.434;2022-12-07T16:20:46;3.92;;;1.83;;
73557;SDS011;61829;53.286;10.434;2022-12-07T16:23:13;3.95;;;1.58;;
73557;SDS011;61829;53.286;10.434;2022-12-07T16:25:39;5.38;;;1.80;;
73557;SDS011;61829;53.286;10.434;2022-12-07T16:28:05;4.03;;;1.52;;
73557;SDS011;61829;53.286;10.434;2022-12-07T16:30:32;4.03;;;1.65;;
73557;SDS011;61829;53.286;10.434;2022-12-07T16:32:58;4.90;;;1.92;;
73557;SDS011;61829;53.286;10.434;2022-12-07T16:35:24;5.03;;;1.58;;
73557;SDS011;61829;53.286;10.434;2022-12-07T16:37:50;3.53;;;1.70;;
73557;SDS011;61829;53.286;10.434;2022-12-07T16:40:17;5.38;;;2.25;;
73557;SDS011;61829;53.286;10.434;2022-12-07T16:42:43;4.55;;;2.60;;
73557;SDS011;61829;53.286;10.434;2022-12-07T16:45:09;4.85;;;2.60;;
73557;SDS011;61829;53.286;10.434;2022-12-07T16:47:37;5.25;;;2.85;;
73557;SDS011;61829;53.286;10.434;2022-12-07T16:50:04;8.85;;;3.25;;
73557;SDS011;61829;53.286;10.434;2022-12-07T16:52:30;6.70;;;3.55;;
73557;SDS011;61829;53.286;10.434;2022-12-07T16:54:57;8.57;;;3.97;;
73557;SDS011;61829;53.286;10.434;2022-12-07T16:57:23;8.88;;;3.63;;
73557;SDS011;61829;53.286;10.434;2022-12-07T16:59:49;6.32;;;3.35;;
73557;SDS011;61829;53.286;10.434;2022-12-07T17:02:18;10.25;;;5.15;;
73557;SDS011;61829;53.286;10.434;2022-12-07T17:04:45;12.00;;;5.38;;
73557;SDS011;61829;53.286;10.434;2022-12-07T17:07:11;8.38;;;4.88;;
73557;SDS011;61829;53.286;10.434;2022-12-07T17:09:38;7.05;;;3.92;;
73557;SDS011;61829;53.286;10.434;2022-12-07T17:12:04;11.13;;;5.25;;
73557;SDS011;61829;53.286;10.434;2022-12-07T17:14:34;7.95;;;4.70;;